createdAt,value
2019-04-11T00:01:07.935Z,15.10
2019-04-11T00:03:37.406Z,14.27
2019-04-11T00:06:06.060Z,13.50
2019-04-11T00:08:37.161Z,15.40
2019-04-11T00:11:07.764Z,13.60
2019-04-11T00:13:36.565Z,13.57
2019-04-11T00:16:06.784Z,15.43
2019-04-11T00:18:35.700Z,13.13
2019-04-11T00:21:04.524Z,14.53
2019-04-11T00:23:34.154Z,15.03
2019-04-11T00:26:04.994Z,15.20
2019-04-11T00:28:34.024Z,12.17
2019-04-11T00:31:02.612Z,13.87
2019-04-11T00:33:31.986Z,13.90
2019-04-11T00:36:00.613Z,13.40
2019-04-11T00:38:29.959Z,14.03
2019-04-11T00:40:59.625Z,13.33
2019-04-11T00:43:37.109Z,12.17
2019-04-11T00:46:01.789Z,10.40
2019-04-11T00:48:31.403Z,13.93
2019-04-11T00:51:02.022Z,11.97
2019-04-11T00:53:30.528Z,13.20
2019-04-11T00:55:59.875Z,12.57
2019-04-11T00:58:29.676Z,13.07
2019-04-11T01:00:59.454Z,11.73
2019-04-11T01:03:28.447Z,11.03
2019-04-11T01:05:58.196Z,12.90
2019-04-11T01:08:27.380Z,12.80
2019-04-11T01:10:57.289Z,11.30
2019-04-11T01:13:26.208Z,12.37
2019-04-11T01:16:07.009Z,14.93
2019-04-11T01:18:36.175Z,11.30
2019-04-11T01:21:04.751Z,12.93
2019-04-11T01:23:33.271Z,11.37
2019-04-11T01:26:01.747Z,10.90
2019-04-11T01:28:30.979Z,14.20
2019-04-11T01:31:01.212Z,14.13
2019-04-11T01:33:29.728Z,12.97
2019-04-11T01:35:58.548Z,14.67
2019-04-11T01:38:28.346Z,12.67
2019-04-11T01:40:56.824Z,10.63
2019-04-11T01:43:26.146Z,13.47
2019-04-11T01:45:55.909Z,11.80
2019-04-11T01:48:26.162Z,12.63
2019-04-11T01:51:18.922Z,10.33
2019-04-11T01:53:47.354Z,10.17
2019-04-11T01:56:16.885Z,11.90
2019-04-11T01:58:45.426Z,9.10
2019-04-11T02:01:16.870Z,11.23
2019-04-11T02:03:49.811Z,11.10
2019-04-11T02:06:19.055Z,11.23
2019-04-11T02:08:47.704Z,14.13
2019-04-11T02:11:17.104Z,12.77
2019-04-11T02:13:46.015Z,11.10
2019-04-11T02:16:14.681Z,12.37
2019-04-11T02:18:43.651Z,13.30
2019-04-11T02:21:12.286Z,9.10
2019-04-11T02:23:51.119Z,13.13
2019-04-11T02:26:21.325Z,12.43
2019-04-11T02:28:49.797Z,10.70
2019-04-11T02:31:20.440Z,10.83
2019-04-11T02:33:48.986Z,11.57
2019-04-11T02:36:18.795Z,13.50
2019-04-11T02:38:54.086Z,10.07
2019-04-11T02:41:18.916Z,12.03
2019-04-11T02:43:50.972Z,12.67
2019-04-11T02:46:27.689Z,8.83
2019-04-11T02:48:49.878Z,10.53
2019-04-11T02:51:20.464Z,9.57
2019-04-11T02:53:49.662Z,10.13
2019-04-11T02:56:19.454Z,10.00
2019-04-11T02:58:50.291Z,17.17
2019-04-11T03:01:20.043Z,10.80
2019-04-11T03:03:49.826Z,10.07
2019-04-11T03:06:19.410Z,11.73
2019-04-11T03:08:48.988Z,9.87
2019-04-11T03:11:19.143Z,9.13
2019-04-11T03:13:52.694Z,11.53
2019-04-11T03:16:32.905Z,10.20
2019-04-11T03:19:08.526Z,9.83
2019-04-11T03:21:23.914Z,8.77
2019-04-11T03:23:52.015Z,10.03
2019-04-11T03:26:21.510Z,10.50
2019-04-11T03:28:54.009Z,11.50
2019-04-11T03:32:05.241Z,11.43
2019-04-11T03:34:44.211Z,9.83
2019-04-11T03:37:08.856Z,11.00
2019-04-11T03:39:11.677Z,9.60
2019-04-11T03:41:52.051Z,9.20
2019-04-11T03:44:15.941Z,8.37
2019-04-11T03:46:49.272Z,8.47
2019-04-11T03:49:19.477Z,7.73
2019-04-11T03:51:36.506Z,11.70
2019-04-11T03:54:07.534Z,11.57
2019-04-11T03:56:37.232Z,7.60
2019-04-11T03:59:08.440Z,10.90
2019-04-11T04:01:37.969Z,10.57
2019-04-11T04:04:08.963Z,11.10
2019-04-11T04:06:39.315Z,10.03
2019-04-11T04:09:10.770Z,13.40
2019-04-11T04:11:42.694Z,11.23
2019-04-11T04:14:26.305Z,9.73
2019-04-11T04:17:00.910Z,11.37
2019-04-11T04:19:32.835Z,9.43
2019-04-11T04:22:09.167Z,9.97
2019-04-11T04:24:40.504Z,9.37
2019-04-11T04:27:10.002Z,11.90
2019-04-11T04:29:38.897Z,9.33
2019-04-11T04:32:08.426Z,10.47
2019-04-11T04:34:37.341Z,9.60
2019-04-11T04:37:07.744Z,9.43
2019-04-11T04:39:47.979Z,13.97
2019-04-11T04:42:24.891Z,13.30
2019-04-11T04:44:49.016Z,9.73
2019-04-11T04:47:26.065Z,10.30
2019-04-11T04:49:48.242Z,11.93
2019-04-11T04:52:18.732Z,14.00
2019-04-11T04:54:48.539Z,9.77
2019-04-11T04:57:18.268Z,12.73
2019-04-11T04:59:48.799Z,11.00
2019-04-11T05:02:17.991Z,9.43
2019-04-11T05:04:47.955Z,9.93
2019-04-11T05:07:17.250Z,12.43
2019-04-11T05:09:46.120Z,10.50
2019-04-11T05:12:16.102Z,8.90
2019-04-11T05:14:45.592Z,10.17
2019-04-11T05:17:14.973Z,9.43
2019-04-11T05:19:44.480Z,8.13
2019-04-11T05:22:13.024Z,10.03
2019-04-11T05:24:41.485Z,10.10
2019-04-11T05:27:10.439Z,10.40
2019-04-11T05:29:39.711Z,13.10
2019-04-11T05:32:09.370Z,12.77
2019-04-11T05:34:37.973Z,11.10
2019-04-11T05:37:06.888Z,11.57
2019-04-11T05:39:36.112Z,10.37
2019-04-11T05:42:05.034Z,10.70
2019-04-11T05:44:35.295Z,10.63
2019-04-11T05:47:05.644Z,12.10
2019-04-11T05:49:41.628Z,9.57
2019-04-11T05:52:10.518Z,10.17
2019-04-11T05:54:50.920Z,11.03
2019-04-11T05:57:23.795Z,12.63
2019-04-11T05:59:53.087Z,14.73
2019-04-11T06:02:21.505Z,10.23
2019-04-11T06:05:11.134Z,10.33
2019-04-11T06:07:48.974Z,10.13
2019-04-11T06:10:19.846Z,8.93
2019-04-11T06:13:06.359Z,11.90
2019-04-11T06:15:43.922Z,13.27
2019-04-11T06:18:26.123Z,13.53
2019-04-11T06:20:49.356Z,12.43
2019-04-11T06:23:37.095Z,12.20
2019-04-11T06:26:16.699Z,14.30
2019-04-11T06:28:45.120Z,11.77
2019-04-11T06:31:18.225Z,12.73
2019-04-11T06:33:57.299Z,12.83
2019-04-11T06:36:28.140Z,12.87
2019-04-11T06:39:05.155Z,14.83
2019-04-11T06:41:38.863Z,14.20
2019-04-11T06:44:25.801Z,12.87
2019-04-11T06:46:58.041Z,11.03
2019-04-11T06:49:28.809Z,11.00
2019-04-11T06:52:12.893Z,12.67
2019-04-11T06:54:59.302Z,12.80
2019-04-11T06:57:30.084Z,11.70
2019-04-11T07:00:00.874Z,12.83
2019-04-11T07:02:32.225Z,11.93
2019-04-11T07:05:06.320Z,12.67
2019-04-11T07:07:36.221Z,10.47
2019-04-11T07:10:06.497Z,12.20
2019-04-11T07:12:36.702Z,11.27
2019-04-11T07:15:12.568Z,12.03
2019-04-11T07:17:58.913Z,11.30
2019-04-11T07:20:31.904Z,13.53
2019-04-11T07:23:20.453Z,16.23
2019-04-11T07:25:51.666Z,15.23
2019-04-11T07:28:25.411Z,15.47
2019-04-11T07:31:07.552Z,12.63
2019-04-11T07:33:54.025Z,14.13
2019-04-11T07:36:40.699Z,13.87
2019-04-11T07:39:12.680Z,14.83
2019-04-11T07:41:43.500Z,14.90
2019-04-11T07:44:21.700Z,12.53
2019-04-11T07:47:16.937Z,16.37
2019-04-11T07:49:46.605Z,13.50
2019-04-11T07:52:23.257Z,16.83
2019-04-11T07:54:52.028Z,15.50
2019-04-11T07:57:30.821Z,14.83
2019-04-11T08:00:00.922Z,12.80
2019-04-11T08:02:31.328Z,14.27
2019-04-11T08:05:08.800Z,13.40
2019-04-11T08:07:42.573Z,14.53
2019-04-11T08:10:13.056Z,14.30
2019-04-11T08:12:41.588Z,12.90
2019-04-11T08:15:29.317Z,13.37
2019-04-11T08:17:59.820Z,13.90
2019-04-11T08:20:47.797Z,15.27
2019-04-11T08:23:19.407Z,17.63
2019-04-11T08:25:49.962Z,14.03
2019-04-11T08:28:18.614Z,15.60
2019-04-11T08:31:05.509Z,15.00
2019-04-11T08:33:35.040Z,12.30
2019-04-11T08:36:05.826Z,12.40
2019-04-11T08:38:34.352Z,14.60
2019-04-11T08:41:04.497Z,13.90
2019-04-11T08:43:37.441Z,15.63
2019-04-11T08:46:10.955Z,14.00
2019-04-11T08:48:59.447Z,14.17
2019-04-11T08:51:33.621Z,16.47
2019-04-11T08:54:15.739Z,12.97
2019-04-11T08:56:45.359Z,15.80
2019-04-11T08:59:35.938Z,17.83
2019-04-11T09:02:06.668Z,14.87
2019-04-11T09:05:03.111Z,13.90
2019-04-11T09:07:33.807Z,16.53
2019-04-11T09:10:20.234Z,18.00
2019-04-11T09:12:52.982Z,14.90
2019-04-11T09:15:39.907Z,14.97
2019-04-11T09:18:11.841Z,17.60
2019-04-11T09:21:00.086Z,13.40
2019-04-11T09:23:29.824Z,14.67
2019-04-11T09:26:01.501Z,14.87
2019-04-11T09:28:35.598Z,15.53
2019-04-11T09:31:08.139Z,15.03
2019-04-11T09:33:57.421Z,16.33
2019-04-11T09:36:40.935Z,13.40
2019-04-11T09:39:15.094Z,14.23
2019-04-11T09:41:54.544Z,15.47
2019-04-11T09:44:41.271Z,15.57
2019-04-11T09:47:13.871Z,15.90
2019-04-11T09:49:49.767Z,17.60
2019-04-11T09:52:20.589Z,14.17
2019-04-11T09:54:54.624Z,18.33
2019-04-11T09:57:25.261Z,19.30
2019-04-11T10:00:12.380Z,15.30
2019-04-11T10:02:54.474Z,16.97
2019-04-11T10:05:36.363Z,15.80
2019-04-11T10:08:09.225Z,13.03
2019-04-11T10:10:41.878Z,18.23
2019-04-11T10:13:18.661Z,15.93
2019-04-11T10:15:48.967Z,14.90
2019-04-11T10:18:38.730Z,13.50
2019-04-11T10:21:09.998Z,15.97
2019-04-11T10:23:58.895Z,17.57
2019-04-11T10:26:29.203Z,15.40
2019-04-11T10:29:00.258Z,15.07
2019-04-11T10:31:30.568Z,20.23
2019-04-11T10:34:17.535Z,16.13
2019-04-11T10:36:47.749Z,15.47
2019-04-11T10:39:37.434Z,18.57
2019-04-11T10:42:11.034Z,16.23
2019-04-11T10:44:42.314Z,20.10
2019-04-11T10:47:12.612Z,16.37
2019-04-11T10:49:42.775Z,16.30
2019-04-11T10:52:14.001Z,16.17
2019-04-11T10:54:45.039Z,20.37
2019-04-11T10:57:27.777Z,18.53
2019-04-11T10:59:56.602Z,17.77
2019-04-11T11:02:26.702Z,18.63
2019-04-11T11:04:56.933Z,17.63
2019-04-11T11:07:26.939Z,17.73
2019-04-11T11:10:00.800Z,18.43
2019-04-11T11:12:35.137Z,21.30
2019-04-11T11:15:09.778Z,18.27
2019-04-11T11:18:26.138Z,18.33
2019-04-11T11:20:38.537Z,16.90
2019-04-11T11:23:20.472Z,19.37
2019-04-11T11:26:09.259Z,21.03
2019-04-11T11:28:46.610Z,21.57
2019-04-11T11:31:33.518Z,20.37
2019-04-11T11:34:02.884Z,20.47
2019-04-11T11:36:48.091Z,20.67
2019-04-11T11:39:20.939Z,19.47
2019-04-11T11:42:08.258Z,18.70
2019-04-11T11:44:44.708Z,18.23
2019-04-11T11:47:36.486Z,19.13
2019-04-11T11:50:04.530Z,21.43
2019-04-11T11:52:51.154Z,21.43
2019-04-11T11:55:31.423Z,20.33
2019-04-11T11:58:19.582Z,14.77
2019-04-11T12:00:52.223Z,19.17
2019-04-11T12:03:40.313Z,20.83
2019-04-11T12:06:09.659Z,21.30
2019-04-11T12:08:52.476Z,21.23
2019-04-11T12:11:21.997Z,22.37
2019-04-11T12:14:01.934Z,19.87
2019-04-11T12:16:41.753Z,18.67
2019-04-11T12:19:16.037Z,23.23
2019-04-11T12:21:43.242Z,17.27
2019-04-11T12:24:13.944Z,21.73
2019-04-11T12:26:49.003Z,20.20
2019-04-11T12:29:18.632Z,19.13
2019-04-11T12:31:50.130Z,24.03
2019-04-11T12:34:32.491Z,19.33
2019-04-11T12:37:02.168Z,18.53
2019-04-11T12:39:48.162Z,18.77
2019-04-11T12:42:24.154Z,20.87
2019-04-11T12:44:54.233Z,20.43
2019-04-11T12:47:24.598Z,20.00
2019-04-11T12:49:54.896Z,18.57
2019-04-11T12:52:36.904Z,20.50
2019-04-11T12:55:11.814Z,19.40
2019-04-11T12:57:58.163Z,19.47
2019-04-11T13:00:28.322Z,24.20
2019-04-11T13:03:01.431Z,20.33
2019-04-11T13:05:36.569Z,20.37
2019-04-11T13:08:23.404Z,21.57
2019-04-11T13:10:51.852Z,20.00
2019-04-11T13:13:27.957Z,21.17
2019-04-11T13:15:58.053Z,19.97
2019-04-11T13:18:29.727Z,19.60
2019-04-11T13:21:02.563Z,18.43
2019-04-11T13:23:48.797Z,18.97
2019-04-11T13:26:35.312Z,18.30
2019-04-11T13:29:23.471Z,21.87
2019-04-11T13:31:53.559Z,21.07
2019-04-11T13:34:23.839Z,18.70
2019-04-11T13:37:02.776Z,18.43
2019-04-11T13:39:31.686Z,17.40
2019-04-11T13:42:19.866Z,17.93
2019-04-11T13:44:48.301Z,18.07
2019-04-11T13:47:18.433Z,19.43
2019-04-11T13:49:50.078Z,20.07
2019-04-11T13:52:23.106Z,18.57
2019-04-11T13:54:55.881Z,19.07
2019-04-11T13:57:28.851Z,20.20
2019-04-11T14:00:15.527Z,19.77
2019-04-11T14:02:50.985Z,18.13
2019-04-11T14:05:19.232Z,19.40
2019-04-11T14:07:48.840Z,19.80
2019-04-11T14:10:21.536Z,18.17
2019-04-11T14:12:51.660Z,20.40
2019-04-11T14:15:24.566Z,18.10
2019-04-11T14:18:12.210Z,18.90
2019-04-11T14:20:51.281Z,21.27
2019-04-11T14:23:24.136Z,18.73
2019-04-11T14:25:54.308Z,19.10
2019-04-11T14:28:24.674Z,17.30
2019-04-11T14:31:11.415Z,16.53
2019-04-11T14:33:59.797Z,15.87
2019-04-11T14:36:46.343Z,17.73
2019-04-11T14:39:16.429Z,18.00
2019-04-11T14:41:59.877Z,18.30
2019-04-11T14:44:30.088Z,17.23
2019-04-11T14:47:06.641Z,15.87
2019-04-11T14:49:33.293Z,18.70
2019-04-11T14:52:10.334Z,22.77
2019-04-11T14:54:40.403Z,17.47
2019-04-11T14:57:13.628Z,18.10
2019-04-11T14:59:43.708Z,17.23
2019-04-11T15:02:29.284Z,17.70
2019-04-11T15:05:06.261Z,18.07
2019-04-11T15:07:36.564Z,19.27
2019-04-11T15:10:08.671Z,16.00
2019-04-11T15:12:38.722Z,18.73
2019-04-11T15:15:24.611Z,19.07
2019-04-11T15:17:55.841Z,21.20
2019-04-11T15:20:54.206Z,19.97
2019-04-11T15:23:14.907Z,17.70
2019-04-11T15:25:45.012Z,17.27
2019-04-11T15:28:25.923Z,14.50
2019-04-11T15:31:04.620Z,19.53
2019-04-11T15:33:34.720Z,16.53
2019-04-11T15:36:07.600Z,16.80
2019-04-11T15:38:43.648Z,15.03
2019-04-11T15:41:12.575Z,18.10
2019-04-11T15:43:58.919Z,18.13
2019-04-11T15:46:31.701Z,16.17
2019-04-11T15:49:21.265Z,15.87
2019-04-11T15:51:50.545Z,16.83
2019-04-11T15:54:37.252Z,17.23
2019-04-11T15:57:12.216Z,18.17
2019-04-11T15:59:43.876Z,18.13
2019-04-11T16:02:17.540Z,17.63
2019-04-11T16:04:47.643Z,17.37
2019-04-11T16:07:26.515Z,16.80
2019-04-11T16:09:56.624Z,17.33
2019-04-11T16:12:41.814Z,18.00
2019-04-11T16:15:19.276Z,16.07
2019-04-11T16:18:04.187Z,17.33
2019-04-11T16:20:32.816Z,17.40
2019-04-11T16:23:19.235Z,18.80
2019-04-11T16:25:49.311Z,18.47
2019-04-11T16:28:22.119Z,17.03
2019-04-11T16:30:52.563Z,19.20
2019-04-11T16:33:34.744Z,17.60
2019-04-11T16:36:05.003Z,16.60
2019-04-11T16:38:51.523Z,15.27
2019-04-11T16:41:37.624Z,16.87
2019-04-11T16:44:18.305Z,15.93
2019-04-11T16:46:56.807Z,18.80
2019-04-11T16:49:25.944Z,15.63
2019-04-11T16:51:55.115Z,15.47
2019-04-11T16:54:23.655Z,16.47
2019-04-11T16:56:52.151Z,15.23
2019-04-11T16:59:20.720Z,17.33
2019-04-11T17:01:53.475Z,15.83
2019-04-11T17:04:20.970Z,16.17
2019-04-11T17:06:56.715Z,15.93
2019-04-11T17:09:32.407Z,16.27
2019-04-11T17:12:01.547Z,14.33
2019-04-11T17:14:33.017Z,18.93
2019-04-11T17:17:00.895Z,15.53
2019-04-11T17:19:30.026Z,16.90
2019-04-11T17:21:58.497Z,15.90
2019-04-11T17:24:27.702Z,17.53
2019-04-11T17:26:56.322Z,19.53
2019-04-11T17:29:25.475Z,16.87
2019-04-11T17:31:56.081Z,15.83
2019-04-11T17:34:24.353Z,16.53
2019-04-11T17:36:52.790Z,19.10
2019-04-11T17:39:21.261Z,15.80
2019-04-11T17:41:51.407Z,16.37
2019-04-11T17:44:20.442Z,15.63
2019-04-11T17:46:49.131Z,15.30
2019-04-11T17:49:19.268Z,16.20
2019-04-11T17:51:55.749Z,14.40
2019-04-11T17:54:18.054Z,15.90
2019-04-11T17:56:46.779Z,15.80
2019-04-11T17:59:15.321Z,17.77
2019-04-11T18:01:44.166Z,14.73
2019-04-11T18:04:13.498Z,17.20
2019-04-11T18:06:42.670Z,13.83
2019-04-11T18:09:12.752Z,15.97
2019-04-11T18:11:41.367Z,16.87
2019-04-11T18:14:09.936Z,14.90
2019-04-11T18:16:38.401Z,14.33
2019-04-11T18:19:09.607Z,16.77
2019-04-11T18:21:37.707Z,14.83
2019-04-11T18:24:06.555Z,14.57
2019-04-11T18:26:35.098Z,16.20
2019-04-11T18:29:03.619Z,18.13
2019-04-11T18:31:33.053Z,15.73
2019-04-11T18:34:02.548Z,15.00
2019-04-11T18:36:32.052Z,15.50
2019-04-11T18:39:05.618Z,16.60
2019-04-11T18:41:31.535Z,16.60
2019-04-11T18:44:00.159Z,15.83
2019-04-11T18:46:30.270Z,13.50
2019-04-11T18:48:58.721Z,13.73
2019-04-11T18:51:27.246Z,16.17
2019-04-11T18:53:55.729Z,14.57
2019-04-11T18:56:24.454Z,15.27
2019-04-11T18:58:53.074Z,13.57
2019-04-11T19:01:22.327Z,13.30
2019-04-11T19:03:50.773Z,14.97
2019-04-11T19:06:27.630Z,16.10
2019-04-11T19:08:49.583Z,15.60
2019-04-11T19:11:19.728Z,14.70
2019-04-11T19:13:48.274Z,13.60
2019-04-11T19:16:18.452Z,14.77
2019-04-11T19:18:47.651Z,16.43
2019-04-11T19:21:20.262Z,18.00
2019-04-11T19:23:47.101Z,17.50
2019-04-11T19:26:15.578Z,15.07
2019-04-11T19:28:45.575Z,15.97
2019-04-11T19:31:14.040Z,13.40
2019-04-11T19:33:42.519Z,15.20
2019-04-11T19:36:12.299Z,13.10
2019-04-11T19:38:43.310Z,14.23
2019-04-11T19:41:11.472Z,14.83
2019-04-11T19:43:40.957Z,16.90
2019-04-11T19:46:09.632Z,14.67
2019-04-11T19:48:38.071Z,13.20
2019-04-11T19:51:06.531Z,17.13
2019-04-11T19:53:36.184Z,15.03
2019-04-11T19:56:21.824Z,13.63
2019-04-11T19:58:51.929Z,12.33
2019-04-11T20:01:22.822Z,12.63
2019-04-11T20:03:53.781Z,17.60
2019-04-11T20:06:20.926Z,14.23
2019-04-11T20:08:51.040Z,13.77
2019-04-11T20:11:19.476Z,16.23
2019-04-11T20:13:47.975Z,15.67
2019-04-11T20:16:16.456Z,14.70
2019-04-11T20:18:50.733Z,13.93
2019-04-11T20:21:17.200Z,17.27
2019-04-11T20:23:45.648Z,11.97
2019-04-11T20:26:14.116Z,11.03
2019-04-11T20:28:42.589Z,13.03
2019-04-11T20:31:11.038Z,11.70
2019-04-11T20:33:39.498Z,14.30
2019-04-11T20:36:10.549Z,18.37
2019-04-11T20:38:38.354Z,12.30
2019-04-11T20:41:06.879Z,12.53
2019-04-11T20:43:35.358Z,11.90
2019-04-11T20:46:04.229Z,11.73
2019-04-11T20:48:35.169Z,14.13
2019-04-11T20:51:03.311Z,12.40
2019-04-11T20:53:31.753Z,11.57
2019-04-11T20:56:00.225Z,12.30
2019-04-11T20:58:28.685Z,12.87
2019-04-11T21:00:57.127Z,14.90
2019-04-11T21:03:30.678Z,12.37
2019-04-11T21:06:01.859Z,12.63
2019-04-11T21:08:32.840Z,11.53
2019-04-11T21:11:01.942Z,14.53
2019-04-11T21:13:30.763Z,15.90
2019-04-11T21:15:59.251Z,11.03
2019-04-11T21:18:27.742Z,12.87
2019-04-11T21:20:56.200Z,12.60
2019-04-11T21:23:29.491Z,14.17
2019-04-11T21:25:59.052Z,17.17
2019-04-11T21:28:27.822Z,12.23
2019-04-11T21:30:59.942Z,16.00
2019-04-11T21:33:27.535Z,13.33
2019-04-11T21:35:56.033Z,10.17
2019-04-11T21:38:24.564Z,11.20
2019-04-11T21:40:54.616Z,13.90
2019-04-11T21:43:23.076Z,13.60
2019-04-11T21:45:51.512Z,10.93
2019-04-11T21:48:19.972Z,11.57
2019-04-11T21:50:48.555Z,11.07
2019-04-11T21:53:17.027Z,12.67
2019-04-11T21:55:47.672Z,12.73
2019-04-11T21:58:19.418Z,12.70
2019-04-11T22:00:54.299Z,10.40
2019-04-11T22:03:24.245Z,10.97
2019-04-11T22:05:52.555Z,10.57
2019-04-11T22:08:21.092Z,10.60
2019-04-11T22:10:49.683Z,11.03
2019-04-11T22:13:18.121Z,9.63
2019-04-11T22:15:46.593Z,11.20
2019-04-11T22:18:16.729Z,13.87
2019-04-11T22:20:46.841Z,12.13
2019-04-11T22:23:17.007Z,11.20
2019-04-11T22:25:47.153Z,11.43
2019-04-11T22:28:15.650Z,11.37
2019-04-11T22:30:44.172Z,13.33
2019-04-11T22:33:24.837Z,10.03
2019-04-11T22:35:53.331Z,11.87
2019-04-11T22:38:21.915Z,11.67
2019-04-11T22:40:50.466Z,10.67
2019-04-11T22:43:24.358Z,10.23
2019-04-11T22:45:49.144Z,9.23
2019-04-11T22:48:17.605Z,12.27
2019-04-11T22:50:46.036Z,13.60
2019-04-11T22:53:14.489Z,13.00
2019-04-11T22:55:42.968Z,13.37
2019-04-11T22:58:13.954Z,10.27
2019-04-11T23:00:45.125Z,12.03
2019-04-11T23:03:16.884Z,11.57
2019-04-11T23:05:46.609Z,12.47
2019-04-11T23:08:13.760Z,11.50
2019-04-11T23:10:42.307Z,13.07
2019-04-11T23:13:10.760Z,11.33
2019-04-11T23:15:39.216Z,10.83
2019-04-11T23:18:07.681Z,14.80
2019-04-11T23:20:36.216Z,12.33
2019-04-11T23:23:04.703Z,10.67
2019-04-11T23:25:33.152Z,11.93
2019-04-11T23:28:01.655Z,11.47
2019-04-11T23:30:30.202Z,10.97
2019-04-11T23:32:58.644Z,10.87
2019-04-11T23:35:27.115Z,12.27
2019-04-11T23:37:55.551Z,13.37
2019-04-11T23:40:24.006Z,9.20
2019-04-11T23:42:52.475Z,12.73
2019-04-11T23:45:22.565Z,11.13
2019-04-11T23:47:54.107Z,12.43
2019-04-11T23:50:24.915Z,10.50
2019-04-11T23:52:51.442Z,11.90
2019-04-11T23:55:20.007Z,9.60
2019-04-11T23:57:48.533Z,10.73
